sensor_id;sensor_type;location;lat;lon;timestamp;P1;durP1;ratioP1;P2;durP2;ratioP2
62740;SDS011;48790;55.656;37.702;2023-09-19T00:01:42;88.10;;;34.35;;
62740;SDS011;48790;55.656;37.702;2023-09-19T00:04:11;79.78;;;33.38;;
62740;SDS011;48790;55.656;37.702;2023-09-19T00:06:38;84.85;;;36.10;;
62740;SDS011;48790;55.656;37.702;2023-09-19T00:09:05;87.28;;;43.22;;
62740;SDS011;48790;55.656;37.702;2023-09-19T00:11:44;81.50;;;37.63;;
62740;SDS011;48790;55.656;37.702;2023-09-19T00:14:13;111.82;;;51.20;;
62740;SDS011;48790;55.656;37.702;2023-09-19T00:16:40;115.55;;;57.42;;
62740;SDS011;48790;55.656;37.702;2023-09-19T00:19:07;106.60;;;54.25;;
62740;SDS011;48790;55.656;37.702;2023-09-19T00:21:34;116.88;;;57.83;;
62740;SDS011;48790;55.656;37.702;2023-09-19T00:24:04;109.40;;;55.33;;
62740;SDS011;48790;55.656;37.702;2023-09-19T00:26:34;128.85;;;65.15;;
62740;SDS011;48790;55.656;37.702;2023-09-19T00:31:30;129.98;;;65.32;;
62740;SDS011;48790;55.656;37.702;2023-09-19T00:33:56;142.80;;;72.63;;
62740;SDS011;48790;55.656;37.702;2023-09-19T00:36:32;150.65;;;76.43;;
62740;SDS011;48790;55.656;37.702;2023-09-19T00:39:03;155.32;;;74.68;;
62740;SDS011;48790;55.656;37.702;2023-09-19T00:41:32;154.50;;;77.43;;
62740;SDS011;48790;55.656;37.702;2023-09-19T00:43:57;161.07;;;76.30;;
62740;SDS011;48790;55.656;37.702;2023-09-19T00:46:25;158.68;;;78.25;;
62740;SDS011;48790;55.656;37.702;2023-09-19T00:48:52;161.45;;;76.95;;
62740;SDS011;48790;55.656;37.702;2023-09-19T00:51:17;153.10;;;73.75;;
62740;SDS011;48790;55.656;37.702;2023-09-19T00:53:46;158.60;;;71.28;;
62740;SDS011;48790;55.656;37.702;2023-09-19T00:56:15;158.77;;;74.28;;
62740;SDS011;48790;55.656;37.702;2023-09-19T00:58:47;166.27;;;74.38;;
62740;SDS011;48790;55.656;37.702;2023-09-19T01:01:13;158.95;;;73.95;;
62740;SDS011;48790;55.656;37.702;2023-09-19T01:03:40;153.90;;;72.47;;
62740;SDS011;48790;55.656;37.702;2023-09-19T01:06:06;162.73;;;72.57;;
62740;SDS011;48790;55.656;37.702;2023-09-19T01:11:18;159.75;;;70.05;;
62740;SDS011;48790;55.656;37.702;2023-09-19T01:14:01;149.27;;;66.70;;
62740;SDS011;48790;55.656;37.702;2023-09-19T01:19:06;123.40;;;55.25;;
62740;SDS011;48790;55.656;37.702;2023-09-19T01:21:46;121.05;;;53.58;;
62740;SDS011;48790;55.656;37.702;2023-09-19T01:30:01;79.03;;;36.50;;
62740;SDS011;48790;55.656;37.702;2023-09-19T01:32:31;80.53;;;37.42;;
62740;SDS011;48790;55.656;37.702;2023-09-19T01:35:00;79.57;;;36.47;;
62740;SDS011;48790;55.656;37.702;2023-09-19T01:37:35;76.65;;;35.08;;
62740;SDS011;48790;55.656;37.702;2023-09-19T01:50:47;80.43;;;35.40;;
62740;SDS011;48790;55.656;37.702;2023-09-19T01:53:25;76.73;;;34.97;;
62740;SDS011;48790;55.656;37.702;2023-09-19T01:55:54;75.15;;;33.97;;
62740;SDS011;48790;55.656;37.702;2023-09-19T01:58:30;74.60;;;33.30;;
62740;SDS011;48790;55.656;37.702;2023-09-19T02:01:01;79.85;;;34.67;;
62740;SDS011;48790;55.656;37.702;2023-09-19T02:03:30;76.47;;;33.25;;
62740;SDS011;48790;55.656;37.702;2023-09-19T02:05:56;78.32;;;34.40;;
62740;SDS011;48790;55.656;37.702;2023-09-19T02:08:22;76.18;;;34.33;;
62740;SDS011;48790;55.656;37.702;2023-09-19T02:10:53;78.78;;;34.60;;
62740;SDS011;48790;55.656;37.702;2023-09-19T02:13:20;71.38;;;33.47;;
62740;SDS011;48790;55.656;37.702;2023-09-19T02:15:49;75.30;;;33.85;;
62740;SDS011;48790;55.656;37.702;2023-09-19T02:18:17;70.47;;;32.40;;
62740;SDS011;48790;55.656;37.702;2023-09-19T02:20:45;78.00;;;34.90;;
62740;SDS011;48790;55.656;37.702;2023-09-19T02:23:12;74.95;;;35.35;;
62740;SDS011;48790;55.656;37.702;2023-09-19T02:25:38;80.90;;;33.70;;
62740;SDS011;48790;55.656;37.702;2023-09-19T02:28:04;78.22;;;35.15;;
62740;SDS011;48790;55.656;37.702;2023-09-19T02:30:31;77.40;;;34.83;;
62740;SDS011;48790;55.656;37.702;2023-09-19T02:33:00;72.53;;;32.88;;
62740;SDS011;48790;55.656;37.702;2023-09-19T02:35:29;67.65;;;32.88;;
62740;SDS011;48790;55.656;37.702;2023-09-19T02:38:09;68.90;;;33.00;;
62740;SDS011;48790;55.656;37.702;2023-09-19T02:40:39;72.25;;;34.60;;
62740;SDS011;48790;55.656;37.702;2023-09-19T02:43:07;71.90;;;34.00;;
62740;SDS011;48790;55.656;37.702;2023-09-19T02:45:34;76.78;;;35.03;;
62740;SDS011;48790;55.656;37.702;2023-09-19T02:48:03;71.50;;;36.22;;
62740;SDS011;48790;55.656;37.702;2023-09-19T02:50:31;80.47;;;35.70;;
62740;SDS011;48790;55.656;37.702;2023-09-19T02:52:56;76.72;;;36.63;;
62740;SDS011;48790;55.656;37.702;2023-09-19T02:55:22;86.03;;;36.33;;
62740;SDS011;48790;55.656;37.702;2023-09-19T02:57:49;77.88;;;36.22;;
62740;SDS011;48790;55.656;37.702;2023-09-19T03:00:18;71.63;;;35.33;;
62740;SDS011;48790;55.656;37.702;2023-09-19T03:03:05;80.72;;;37.10;;
62740;SDS011;48790;55.656;37.702;2023-09-19T03:05:37;81.80;;;37.05;;
62740;SDS011;48790;55.656;37.702;2023-09-19T03:08:06;81.82;;;35.67;;
62740;SDS011;48790;55.656;37.702;2023-09-19T03:10:33;79.15;;;37.47;;
62740;SDS011;48790;55.656;37.702;2023-09-19T03:13:02;81.00;;;37.55;;
62740;SDS011;48790;55.656;37.702;2023-09-19T03:15:28;109.63;;;42.72;;
62740;SDS011;48790;55.656;37.702;2023-09-19T03:17:54;106.30;;;44.33;;
62740;SDS011;48790;55.656;37.702;2023-09-19T03:20:22;116.63;;;44.67;;
62740;SDS011;48790;55.656;37.702;2023-09-19T03:22:50;111.03;;;43.95;;
62740;SDS011;48790;55.656;37.702;2023-09-19T03:25:22;105.03;;;44.28;;
62740;SDS011;48790;55.656;37.702;2023-09-19T03:28:08;104.20;;;41.35;;
62740;SDS011;48790;55.656;37.702;2023-09-19T03:30:36;106.30;;;42.55;;
62740;SDS011;48790;55.656;37.702;2023-09-19T03:33:05;102.40;;;41.92;;
62740;SDS011;48790;55.656;37.702;2023-09-19T03:35:34;106.30;;;42.38;;
62740;SDS011;48790;55.656;37.702;2023-09-19T03:38:20;98.78;;;40.72;;
62740;SDS011;48790;55.656;37.702;2023-09-19T03:40:47;107.10;;;40.58;;
62740;SDS011;48790;55.656;37.702;2023-09-19T03:43:14;99.15;;;39.53;;
62740;SDS011;48790;55.656;37.702;2023-09-19T03:45:42;86.72;;;37.55;;
62740;SDS011;48790;55.656;37.702;2023-09-19T03:48:08;90.70;;;37.53;;
62740;SDS011;48790;55.656;37.702;2023-09-19T03:53:05;80.82;;;35.70;;
62740;SDS011;48790;55.656;37.702;2023-09-19T03:55:35;78.95;;;33.67;;
62740;SDS011;48790;55.656;37.702;2023-09-19T03:58:06;74.15;;;33.10;;
62740;SDS011;48790;55.656;37.702;2023-09-19T04:00:32;72.25;;;32.90;;
62740;SDS011;48790;55.656;37.702;2023-09-19T04:03:01;69.65;;;30.80;;
62740;SDS011;48790;55.656;37.702;2023-09-19T04:05:36;65.38;;;30.92;;
62740;SDS011;48790;55.656;37.702;2023-09-19T04:08:02;65.10;;;29.90;;
62740;SDS011;48790;55.656;37.702;2023-09-19T04:10:31;66.22;;;30.77;;
62740;SDS011;48790;55.656;37.702;2023-09-19T04:12:56;68.50;;;29.77;;
62740;SDS011;48790;55.656;37.702;2023-09-19T04:15:23;64.47;;;29.90;;
62740;SDS011;48790;55.656;37.702;2023-09-19T04:17:52;68.13;;;27.95;;
62740;SDS011;48790;55.656;37.702;2023-09-19T04:20:20;63.63;;;28.88;;
62740;SDS011;48790;55.656;37.702;2023-09-19T04:22:51;65.93;;;27.95;;
62740;SDS011;48790;55.656;37.702;2023-09-19T04:25:17;60.65;;;28.52;;
62740;SDS011;48790;55.656;37.702;2023-09-19T04:27:45;63.70;;;28.23;;
62740;SDS011;48790;55.656;37.702;2023-09-19T04:30:12;60.72;;;27.35;;
62740;SDS011;48790;55.656;37.702;2023-09-19T04:32:40;63.42;;;28.50;;
62740;SDS011;48790;55.656;37.702;2023-09-19T04:35:07;54.42;;;26.70;;
62740;SDS011;48790;55.656;37.702;2023-09-19T04:37:37;57.60;;;28.52;;
62740;SDS011;48790;55.656;37.702;2023-09-19T04:40:14;60.00;;;28.08;;
62740;SDS011;48790;55.656;37.702;2023-09-19T04:42:53;58.05;;;27.35;;
62740;SDS011;48790;55.656;37.702;2023-09-19T04:45:25;62.47;;;27.85;;
62740;SDS011;48790;55.656;37.702;2023-09-19T04:47:57;61.97;;;27.13;;
62740;SDS011;48790;55.656;37.702;2023-09-19T04:50:23;62.58;;;27.92;;
62740;SDS011;48790;55.656;37.702;2023-09-19T04:53:01;62.72;;;27.85;;
62740;SDS011;48790;55.656;37.702;2023-09-19T04:55:27;59.92;;;27.88;;
62740;SDS011;48790;55.656;37.702;2023-09-19T04:58:06;57.55;;;27.73;;
62740;SDS011;48790;55.656;37.702;2023-09-19T05:00:32;57.00;;;28.15;;
62740;SDS011;48790;55.656;37.702;2023-09-19T05:03:00;63.47;;;28.45;;
62740;SDS011;48790;55.656;37.702;2023-09-19T05:05:29;65.35;;;28.52;;
62740;SDS011;48790;55.656;37.702;2023-09-19T05:07:55;57.88;;;29.48;;
62740;SDS011;48790;55.656;37.702;2023-09-19T05:10:21;60.60;;;29.00;;
62740;SDS011;48790;55.656;37.702;2023-09-19T05:12:50;62.55;;;29.67;;
62740;SDS011;48790;55.656;37.702;2023-09-19T05:15:18;73.55;;;30.55;;
62740;SDS011;48790;55.656;37.702;2023-09-19T05:17:52;67.13;;;28.63;;
62740;SDS011;48790;55.656;37.702;2023-09-19T05:20:20;62.03;;;29.33;;
62740;SDS011;48790;55.656;37.702;2023-09-19T05:23:00;72.78;;;30.55;;
62740;SDS011;48790;55.656;37.702;2023-09-19T05:25:32;64.32;;;29.08;;
62740;SDS011;48790;55.656;37.702;2023-09-19T05:27:58;60.53;;;28.92;;
62740;SDS011;48790;55.656;37.702;2023-09-19T05:30:27;60.78;;;29.08;;
62740;SDS011;48790;55.656;37.702;2023-09-19T05:32:56;57.00;;;29.02;;
62740;SDS011;48790;55.656;37.702;2023-09-19T05:35:30;63.53;;;30.50;;
62740;SDS011;48790;55.656;37.702;2023-09-19T05:38:01;64.40;;;31.15;;
62740;SDS011;48790;55.656;37.702;2023-09-19T05:40:27;57.55;;;29.58;;
62740;SDS011;48790;55.656;37.702;2023-09-19T05:42:52;66.13;;;28.63;;
62740;SDS011;48790;55.656;37.702;2023-09-19T05:45:19;57.60;;;29.52;;
62740;SDS011;48790;55.656;37.702;2023-09-19T05:47:52;60.15;;;28.88;;
62740;SDS011;48790;55.656;37.702;2023-09-19T05:50:25;63.58;;;28.75;;
62740;SDS011;48790;55.656;37.702;2023-09-19T05:52:52;57.75;;;27.90;;
62740;SDS011;48790;55.656;37.702;2023-09-19T05:55:18;67.03;;;27.83;;
62740;SDS011;48790;55.656;37.702;2023-09-19T05:57:49;53.95;;;25.67;;
62740;SDS011;48790;55.656;37.702;2023-09-19T06:00:15;52.30;;;25.98;;
62740;SDS011;48790;55.656;37.702;2023-09-19T06:02:43;58.25;;;26.23;;
62740;SDS011;48790;55.656;37.702;2023-09-19T06:05:10;62.03;;;26.90;;
62740;SDS011;48790;55.656;37.702;2023-09-19T06:07:36;50.13;;;25.15;;
62740;SDS011;48790;55.656;37.702;2023-09-19T06:10:06;52.05;;;25.85;;
62740;SDS011;48790;55.656;37.702;2023-09-19T06:12:39;51.35;;;26.02;;
62740;SDS011;48790;55.656;37.702;2023-09-19T06:15:11;52.90;;;24.77;;
62740;SDS011;48790;55.656;37.702;2023-09-19T06:17:46;44.80;;;24.20;;
62740;SDS011;48790;55.656;37.702;2023-09-19T06:20:12;55.75;;;25.02;;
62740;SDS011;48790;55.656;37.702;2023-09-19T06:22:49;50.58;;;23.17;;
62740;SDS011;48790;55.656;37.702;2023-09-19T06:25:21;51.42;;;23.90;;
62740;SDS011;48790;55.656;37.702;2023-09-19T06:27:53;56.17;;;24.23;;
62740;SDS011;48790;55.656;37.702;2023-09-19T06:30:26;56.95;;;25.05;;
62740;SDS011;48790;55.656;37.702;2023-09-19T06:32:59;54.20;;;23.60;;
62740;SDS011;48790;55.656;37.702;2023-09-19T06:35:28;49.00;;;24.33;;
62740;SDS011;48790;55.656;37.702;2023-09-19T06:37:55;47.00;;;24.17;;
62740;SDS011;48790;55.656;37.702;2023-09-19T06:40:29;44.80;;;23.70;;
62740;SDS011;48790;55.656;37.702;2023-09-19T06:42:56;45.67;;;23.75;;
62740;SDS011;48790;55.656;37.702;2023-09-19T06:45:22;45.65;;;24.35;;
62740;SDS011;48790;55.656;37.702;2023-09-19T06:47:52;58.47;;;25.10;;
62740;SDS011;48790;55.656;37.702;2023-09-19T06:50:23;47.05;;;23.65;;
62740;SDS011;48790;55.656;37.702;2023-09-19T06:52:53;42.42;;;23.33;;
62740;SDS011;48790;55.656;37.702;2023-09-19T06:55:21;37.63;;;23.63;;
62740;SDS011;48790;55.656;37.702;2023-09-19T06:57:51;46.03;;;23.67;;
62740;SDS011;48790;55.656;37.702;2023-09-19T07:00:20;49.50;;;22.83;;
62740;SDS011;48790;55.656;37.702;2023-09-19T07:05:24;47.58;;;24.55;;
62740;SDS011;48790;55.656;37.702;2023-09-19T07:07:53;46.80;;;23.25;;
62740;SDS011;48790;55.656;37.702;2023-09-19T07:10:35;46.83;;;23.50;;
62740;SDS011;48790;55.656;37.702;2023-09-19T07:13:05;38.92;;;22.73;;
62740;SDS011;48790;55.656;37.702;2023-09-19T07:15:36;44.45;;;23.67;;
62740;SDS011;48790;55.656;37.702;2023-09-19T07:18:15;39.15;;;23.02;;
62740;SDS011;48790;55.656;37.702;2023-09-19T07:20:45;44.13;;;23.05;;
62740;SDS011;48790;55.656;37.702;2023-09-19T07:23:20;46.50;;;23.45;;
62740;SDS011;48790;55.656;37.702;2023-09-19T07:25:50;53.00;;;23.95;;
62740;SDS011;48790;55.656;37.702;2023-09-19T07:28:16;40.63;;;22.10;;
62740;SDS011;48790;55.656;37.702;2023-09-19T07:30:51;42.05;;;23.77;;
62740;SDS011;48790;55.656;37.702;2023-09-19T07:33:22;45.88;;;21.85;;
62740;SDS011;48790;55.656;37.702;2023-09-19T07:35:59;37.72;;;21.95;;
62740;SDS011;48790;55.656;37.702;2023-09-19T07:38:28;43.85;;;23.33;;
62740;SDS011;48790;55.656;37.702;2023-09-19T07:41:00;45.13;;;22.83;;
62740;SDS011;48790;55.656;37.702;2023-09-19T07:43:28;42.38;;;24.60;;
62740;SDS011;48790;55.656;37.702;2023-09-19T07:46:02;44.05;;;22.58;;
62740;SDS011;48790;55.656;37.702;2023-09-19T07:48:29;36.78;;;21.65;;
62740;SDS011;48790;55.656;37.702;2023-09-19T07:51:05;43.10;;;22.70;;
62740;SDS011;48790;55.656;37.702;2023-09-19T07:53:37;40.88;;;21.63;;
62740;SDS011;48790;55.656;37.702;2023-09-19T07:56:04;42.47;;;23.20;;
62740;SDS011;48790;55.656;37.702;2023-09-19T07:58:34;42.28;;;23.20;;
62740;SDS011;48790;55.656;37.702;2023-09-19T08:01:07;44.63;;;22.38;;
62740;SDS011;48790;55.656;37.702;2023-09-19T08:03:45;39.67;;;22.65;;
62740;SDS011;48790;55.656;37.702;2023-09-19T08:06:16;41.58;;;22.42;;
62740;SDS011;48790;55.656;37.702;2023-09-19T08:08:46;41.70;;;21.67;;
62740;SDS011;48790;55.656;37.702;2023-09-19T08:11:19;37.80;;;21.40;;
62740;SDS011;48790;55.656;37.702;2023-09-19T08:13:51;44.08;;;22.67;;
62740;SDS011;48790;55.656;37.702;2023-09-19T08:16:19;39.25;;;22.20;;
62740;SDS011;48790;55.656;37.702;2023-09-19T08:18:48;39.58;;;21.50;;
62740;SDS011;48790;55.656;37.702;2023-09-19T08:21:23;43.65;;;21.55;;
62740;SDS011;48790;55.656;37.702;2023-09-19T08:23:58;37.95;;;21.33;;
62740;SDS011;48790;55.656;37.702;2023-09-19T08:26:34;43.53;;;21.83;;
62740;SDS011;48790;55.656;37.702;2023-09-19T08:29:14;39.72;;;20.13;;
62740;SDS011;48790;55.656;37.702;2023-09-19T08:31:40;47.45;;;21.77;;
62740;SDS011;48790;55.656;37.702;2023-09-19T08:34:20;33.42;;;20.38;;
62740;SDS011;48790;55.656;37.702;2023-09-19T08:37:09;39.10;;;21.50;;
62740;SDS011;48790;55.656;37.702;2023-09-19T08:39:37;39.50;;;20.48;;
62740;SDS011;48790;55.656;37.702;2023-09-19T08:42:06;36.60;;;21.00;;
62740;SDS011;48790;55.656;37.702;2023-09-19T08:44:59;40.80;;;21.45;;
62740;SDS011;48790;55.656;37.702;2023-09-19T08:47:37;39.70;;;20.80;;
62740;SDS011;48790;55.656;37.702;2023-09-19T08:50:28;37.38;;;21.55;;
62740;SDS011;48790;55.656;37.702;2023-09-19T08:53:02;38.20;;;20.65;;
62740;SDS011;48790;55.656;37.702;2023-09-19T08:55:50;37.72;;;21.20;;
62740;SDS011;48790;55.656;37.702;2023-09-19T09:01:19;38.53;;;21.17;;
62740;SDS011;48790;55.656;37.702;2023-09-19T09:04:02;47.60;;;21.52;;
62740;SDS011;48790;55.656;37.702;2023-09-19T09:06:30;38.75;;;22.25;;
62740;SDS011;48790;55.656;37.702;2023-09-19T09:09:03;39.85;;;23.02;;
62740;SDS011;48790;55.656;37.702;2023-09-19T09:11:43;40.65;;;23.08;;
62740;SDS011;48790;55.656;37.702;2023-09-19T09:14:20;34.35;;;21.83;;
62740;SDS011;48790;55.656;37.702;2023-09-19T09:16:46;38.47;;;21.10;;
62740;SDS011;48790;55.656;37.702;2023-09-19T09:19:15;35.22;;;21.60;;
62740;SDS011;48790;55.656;37.702;2023-09-19T09:21:49;43.78;;;21.58;;
62740;SDS011;48790;55.656;37.702;2023-09-19T09:24:29;39.58;;;21.55;;
62740;SDS011;48790;55.656;37.702;2023-09-19T09:27:05;37.05;;;21.83;;
62740;SDS011;48790;55.656;37.702;2023-09-19T09:29:47;38.67;;;20.92;;
62740;SDS011;48790;55.656;37.702;2023-09-19T09:32:19;34.63;;;20.63;;
62740;SDS011;48790;55.656;37.702;2023-09-19T09:34:52;41.05;;;20.20;;
62740;SDS011;48790;55.656;37.702;2023-09-19T09:37:23;38.28;;;20.25;;
62740;SDS011;48790;55.656;37.702;2023-09-19T09:40:01;39.97;;;19.77;;
62740;SDS011;48790;55.656;37.702;2023-09-19T09:43:16;40.85;;;20.25;;
62740;SDS011;48790;55.656;37.702;2023-09-19T09:49:07;34.83;;;19.10;;
62740;SDS011;48790;55.656;37.702;2023-09-19T09:52:12;42.55;;;19.25;;
62740;SDS011;48790;55.656;37.702;2023-09-19T09:54:58;38.35;;;19.27;;
62740;SDS011;48790;55.656;37.702;2023-09-19T09:57:33;36.60;;;17.65;;
62740;SDS011;48790;55.656;37.702;2023-09-19T10:00:17;34.28;;;18.60;;
62740;SDS011;48790;55.656;37.702;2023-09-19T10:02:46;36.45;;;19.23;;
62740;SDS011;48790;55.656;37.702;2023-09-19T10:05:15;37.97;;;18.75;;
62740;SDS011;48790;55.656;37.702;2023-09-19T10:07:48;39.65;;;18.77;;
62740;SDS011;48790;55.656;37.702;2023-09-19T10:10:30;43.83;;;19.70;;
62740;SDS011;48790;55.656;37.702;2023-09-19T10:13:14;38.72;;;19.33;;
62740;SDS011;48790;55.656;37.702;2023-09-19T10:15:48;33.22;;;18.45;;
62740;SDS011;48790;55.656;37.702;2023-09-19T10:18:31;37.63;;;19.05;;
62740;SDS011;48790;55.656;37.702;2023-09-19T10:21:13;38.90;;;19.40;;
62740;SDS011;48790;55.656;37.702;2023-09-19T10:23:59;37.95;;;17.98;;
62740;SDS011;48790;55.656;37.702;2023-09-19T10:26:28;30.98;;;17.65;;
62740;SDS011;48790;55.656;37.702;2023-09-19T10:28:58;35.35;;;17.20;;
62740;SDS011;48790;55.656;37.702;2023-09-19T10:31:28;34.72;;;18.08;;
62740;SDS011;48790;55.656;37.702;2023-09-19T10:34:02;28.95;;;17.73;;
62740;SDS011;48790;55.656;37.702;2023-09-19T10:36:37;32.20;;;17.23;;
62740;SDS011;48790;55.656;37.702;2023-09-19T10:39:21;31.10;;;18.35;;
62740;SDS011;48790;55.656;37.702;2023-09-19T10:42:01;25.83;;;17.10;;
62740;SDS011;48790;55.656;37.702;2023-09-19T10:44:33;33.20;;;17.00;;
62740;SDS011;48790;55.656;37.702;2023-09-19T10:47:11;31.70;;;16.10;;
62740;SDS011;48790;55.656;37.702;2023-09-19T10:49:44;33.55;;;17.02;;
62740;SDS011;48790;55.656;37.702;2023-09-19T10:52:14;34.65;;;17.40;;
62740;SDS011;48790;55.656;37.702;2023-09-19T10:55:09;31.17;;;15.75;;
62740;SDS011;48790;55.656;37.702;2023-09-19T10:57:39;29.48;;;16.95;;
62740;SDS011;48790;55.656;37.702;2023-09-19T11:00:12;33.33;;;16.65;;
62740;SDS011;48790;55.656;37.702;2023-09-19T11:05:39;32.00;;;16.38;;
62740;SDS011;48790;55.656;37.702;2023-09-19T11:08:24;32.70;;;15.88;;
62740;SDS011;48790;55.656;37.702;2023-09-19T11:10:59;30.98;;;17.08;;
62740;SDS011;48790;55.656;37.702;2023-09-19T11:13:36;34.10;;;17.02;;
62740;SDS011;48790;55.656;37.702;2023-09-19T11:16:06;36.08;;;16.65;;
62740;SDS011;48790;55.656;37.702;2023-09-19T11:27:11;32.05;;;15.45;;
62740;SDS011;48790;55.656;37.702;2023-09-19T11:29:46;31.20;;;15.45;;
62740;SDS011;48790;55.656;37.702;2023-09-19T11:32:21;34.13;;;16.85;;
62740;SDS011;48790;55.656;37.702;2023-09-19T11:35:57;35.55;;;16.25;;
62740;SDS011;48790;55.656;37.702;2023-09-19T11:44:40;43.75;;;18.30;;
62740;SDS011;48790;55.656;37.702;2023-09-19T11:49:25;34.53;;;17.30;;
62740;SDS011;48790;55.656;37.702;2023-09-19T11:52:00;38.70;;;19.58;;
62740;SDS011;48790;55.656;37.702;2023-09-19T11:54:36;44.15;;;18.25;;
62740;SDS011;48790;55.656;37.702;2023-09-19T11:57:06;41.92;;;17.30;;
62740;SDS011;48790;55.656;37.702;2023-09-19T11:59:33;35.05;;;17.15;;
62740;SDS011;48790;55.656;37.702;2023-09-19T12:02:06;37.15;;;18.58;;
62740;SDS011;48790;55.656;37.702;2023-09-19T12:07:14;28.80;;;17.05;;
62740;SDS011;48790;55.656;37.702;2023-09-19T12:09:43;28.10;;;16.02;;
62740;SDS011;48790;55.656;37.702;2023-09-19T12:12:28;29.40;;;16.83;;
62740;SDS011;48790;55.656;37.702;2023-09-19T12:14:55;38.00;;;18.13;;
62740;SDS011;48790;55.656;37.702;2023-09-19T12:17:40;39.67;;;17.77;;
62740;SDS011;48790;55.656;37.702;2023-09-19T12:20:10;28.80;;;18.00;;
62740;SDS011;48790;55.656;37.702;2023-09-19T12:22:42;30.63;;;17.77;;
62740;SDS011;48790;55.656;37.702;2023-09-19T12:25:12;35.13;;;17.50;;
62740;SDS011;48790;55.656;37.702;2023-09-19T12:27:48;28.85;;;16.65;;
62740;SDS011;48790;55.656;37.702;2023-09-19T12:30:18;30.85;;;16.85;;
62740;SDS011;48790;55.656;37.702;2023-09-19T12:32:48;40.20;;;17.23;;
62740;SDS011;48790;55.656;37.702;2023-09-19T12:35:27;31.58;;;18.95;;
62740;SDS011;48790;55.656;37.702;2023-09-19T12:38:03;37.35;;;17.15;;
62740;SDS011;48790;55.656;37.702;2023-09-19T12:40:34;42.90;;;18.77;;
62740;SDS011;48790;55.656;37.702;2023-09-19T12:45:30;34.58;;;17.10;;
62740;SDS011;48790;55.656;37.702;2023-09-19T12:53:45;36.60;;;16.95;;
62740;SDS011;48790;55.656;37.702;2023-09-19T12:56:13;37.67;;;16.90;;
62740;SDS011;48790;55.656;37.702;2023-09-19T12:58:52;36.17;;;17.30;;
62740;SDS011;48790;55.656;37.702;2023-09-19T13:01:22;37.65;;;17.17;;
62740;SDS011;48790;55.656;37.702;2023-09-19T13:06:49;36.17;;;17.73;;
62740;SDS011;48790;55.656;37.702;2023-09-19T13:09:31;34.05;;;17.33;;
62740;SDS011;48790;55.656;37.702;2023-09-19T13:12:00;43.00;;;17.95;;
62740;SDS011;48790;55.656;37.702;2023-09-19T13:14:32;34.72;;;17.17;;
62740;SDS011;48790;55.656;37.702;2023-09-19T13:17:08;31.70;;;16.75;;
62740;SDS011;48790;55.656;37.702;2023-09-19T13:19:49;28.25;;;16.17;;
62740;SDS011;48790;55.656;37.702;2023-09-19T13:25:18;33.05;;;16.23;;
62740;SDS011;48790;55.656;37.702;2023-09-19T13:30:24;28.58;;;14.80;;
62740;SDS011;48790;55.656;37.702;2023-09-19T13:35:51;27.70;;;15.82;;
62740;SDS011;48790;55.656;37.702;2023-09-19T13:38:20;25.30;;;15.18;;
62740;SDS011;48790;55.656;37.702;2023-09-19T13:40:49;27.67;;;15.98;;
62740;SDS011;48790;55.656;37.702;2023-09-19T13:43:16;31.83;;;15.32;;
62740;SDS011;48790;55.656;37.702;2023-09-19T13:45:42;30.58;;;15.80;;
62740;SDS011;48790;55.656;37.702;2023-09-19T13:48:14;31.73;;;15.63;;
62740;SDS011;48790;55.656;37.702;2023-09-19T13:50:42;28.27;;;15.68;;
62740;SDS011;48790;55.656;37.702;2023-09-19T13:53:08;30.13;;;16.00;;
62740;SDS011;48790;55.656;37.702;2023-09-19T13:55:34;31.33;;;15.55;;
62740;SDS011;48790;55.656;37.702;2023-09-19T13:58:06;29.70;;;15.38;;
62740;SDS011;48790;55.656;37.702;2023-09-19T14:00:40;25.55;;;14.88;;
62740;SDS011;48790;55.656;37.702;2023-09-19T14:03:07;29.95;;;15.02;;
62740;SDS011;48790;55.656;37.702;2023-09-19T14:05:33;31.63;;;15.00;;
62740;SDS011;48790;55.656;37.702;2023-09-19T14:07:59;38.60;;;15.85;;
62740;SDS011;48790;55.656;37.702;2023-09-19T14:10:25;30.88;;;15.88;;
62740;SDS011;48790;55.656;37.702;2023-09-19T14:13:01;27.85;;;15.23;;
62740;SDS011;48790;55.656;37.702;2023-09-19T14:15:27;26.95;;;15.35;;
62740;SDS011;48790;55.656;37.702;2023-09-19T14:18:00;30.92;;;15.48;;
62740;SDS011;48790;55.656;37.702;2023-09-19T14:20:26;30.92;;;17.08;;
62740;SDS011;48790;55.656;37.702;2023-09-19T14:22:53;31.95;;;16.08;;
62740;SDS011;48790;55.656;37.702;2023-09-19T14:25:21;35.08;;;16.52;;
62740;SDS011;48790;55.656;37.702;2023-09-19T14:27:48;38.08;;;19.60;;
62740;SDS011;48790;55.656;37.702;2023-09-19T14:30:14;64.22;;;30.17;;
62740;SDS011;48790;55.656;37.702;2023-09-19T14:32:40;66.70;;;34.83;;
62740;SDS011;48790;55.656;37.702;2023-09-19T14:35:07;99.75;;;46.05;;
62740;SDS011;48790;55.656;37.702;2023-09-19T14:37:42;61.13;;;24.70;;
62740;SDS011;48790;55.656;37.702;2023-09-19T14:40:16;47.30;;;20.15;;
62740;SDS011;48790;55.656;37.702;2023-09-19T14:42:45;44.83;;;19.63;;
62740;SDS011;48790;55.656;37.702;2023-09-19T14:45:13;37.10;;;18.65;;
62740;SDS011;48790;55.656;37.702;2023-09-19T14:47:42;44.08;;;20.23;;
62740;SDS011;48790;55.656;37.702;2023-09-19T14:50:11;41.15;;;19.95;;
62740;SDS011;48790;55.656;37.702;2023-09-19T14:52:38;42.88;;;19.55;;
62740;SDS011;48790;55.656;37.702;2023-09-19T14:55:08;38.97;;;18.83;;
62740;SDS011;48790;55.656;37.702;2023-09-19T14:57:36;47.40;;;23.55;;
62740;SDS011;48790;55.656;37.702;2023-09-19T15:00:06;87.57;;;40.95;;
62740;SDS011;48790;55.656;37.702;2023-09-19T15:02:40;45.72;;;22.35;;
62740;SDS011;48790;55.656;37.702;2023-09-19T15:05:06;51.45;;;27.92;;
62740;SDS011;48790;55.656;37.702;2023-09-19T15:07:35;54.33;;;21.77;;
62740;SDS011;48790;55.656;37.702;2023-09-19T15:10:03;44.58;;;20.33;;
62740;SDS011;48790;55.656;37.702;2023-09-19T15:12:37;39.92;;;19.88;;
62740;SDS011;48790;55.656;37.702;2023-09-19T15:15:04;40.42;;;20.15;;
62740;SDS011;48790;55.656;37.702;2023-09-19T15:17:37;45.40;;;20.45;;
62740;SDS011;48790;55.656;37.702;2023-09-19T15:20:03;40.78;;;20.83;;
62740;SDS011;48790;55.656;37.702;2023-09-19T15:22:34;41.50;;;20.00;;
62740;SDS011;48790;55.656;37.702;2023-09-19T15:25:04;38.85;;;20.67;;
62740;SDS011;48790;55.656;37.702;2023-09-19T15:27:31;43.00;;;21.08;;
62740;SDS011;48790;55.656;37.702;2023-09-19T15:29:59;38.75;;;20.60;;
62740;SDS011;48790;55.656;37.702;2023-09-19T15:32:26;37.80;;;20.38;;
62740;SDS011;48790;55.656;37.702;2023-09-19T15:34:56;50.65;;;21.30;;
62740;SDS011;48790;55.656;37.702;2023-09-19T15:37:22;47.03;;;21.02;;
62740;SDS011;48790;55.656;37.702;2023-09-19T15:39:55;44.38;;;21.10;;
62740;SDS011;48790;55.656;37.702;2023-09-19T15:42:26;35.73;;;20.70;;
62740;SDS011;48790;55.656;37.702;2023-09-19T15:44:55;38.63;;;20.90;;
62740;SDS011;48790;55.656;37.702;2023-09-19T15:47:24;49.05;;;23.83;;
62740;SDS011;48790;55.656;37.702;2023-09-19T15:49:53;48.85;;;22.42;;
62740;SDS011;48790;55.656;37.702;2023-09-19T15:52:19;49.38;;;21.58;;